ADT,Max TemperatureF,Mean TemperatureF,Min TemperatureF,Max Dew PointF,MeanDew PointF,Min DewpointF,Max Humidity, Mean Humidity, Min Humidity, Max Sea Level PressureIn, Mean Sea Level PressureIn, Min Sea Level PressureIn, Max VisibilityMiles, Mean VisibilityMiles, Min VisibilityMiles, Max Wind SpeedMPH, Mean Wind SpeedMPH, Max Gust SpeedMPH,PrecipitationIn, CloudCover, Events, WindDirDegrees
2012-9-1,73,63,53,62,51,47,87,62,30,30.11,29.98,29.77,,,,10,4,,0.00,,,329
2012-9-2,70,56,41,59,51,40,97,86,56,30.18,30.14,30.12,,,,7,2,,0.03,,,129
2012-9-3,73,60,47,57,52,47,98,81,29,30.22,30.18,30.14,,,,6,1,,0.00,,,272
2012-9-4,79,63,47,61,56,47,97,78,43,30.15,30.08,30.01,,,,10,3,17,0.24,,,216
2012-9-5,63,60,57,61,58,56,97,92,74,30.00,29.80,29.65,,,,10,5,17,1.89,,,44
2012-9-6,70,64,57,60,58,56,96,82,65,29.87,29.83,29.79,,,,8,4,,0.00,,,318
2012-9-7,67,59,51,62,57,51,99,94,79,29.94,29.90,29.87,,,,5,2,,0.12,,,99
2012-9-8,76,67,58,68,63,58,98,91,73,29.95,29.88,29.75,,,,15,6,26,0.24,,,137
2012-9-9,70,64,58,68,61,55,96,84,64,29.84,29.75,29.64,,,,13,7,23,0.08,,,266
2012-9-10,68,60,53,57,52,48,96,75,44,29.86,29.81,29.78,,,,9,3,17,0.01,,,328
2012-9-11,70,58,46,50,45,42,94,66,25,30.19,30.02,29.87,,,,9,6,20,0.00,,,299
2012-9-12,75,57,39,55,48,39,97,72,35,30.32,30.28,30.20,,,,7,3,,0.00,,,214
2012-9-13,80,62,43,63,54,42,97,78,41,30.34,30.29,30.23,,,,7,2,,0.00,,,180
2012-9-14,75,62,50,64,59,50,97,86,63,30.25,30.21,30.13,,,,8,2,,0.00,,,149
2012-9-15,72,63,52,62,58,44,93,81,67,30.12,29.97,29.86,,,,12,5,20,0.00,,,191
2012-9-16,64,51,38,44,41,36,97,68,25,29.96,29.91,29.87,,,,12,3,20,0.00,,,276
2012-9-17,70,53,36,49,42,36,97,71,28,30.07,30.02,29.97,,,,7,2,,0.00,,,250
2012-9-18,72,54,37,59,49,37,98,80,49,30.11,30.06,29.96,,,,13,4,22,0.00,,,135
2012-9-19,68,58,48,66,57,44,95,82,54,30.19,29.92,29.80,,,,16,9,30,0.55,,,219
2012-9-20,64,50,37,48,42,37,95,73,31,30.30,30.23,30.19,,,,7,3,,0.00,,,352
2012-9-21,58,52,45,55,50,45,97,90,75,30.19,30.17,30.13,,,,6,2,,0.00,,,50
2012-9-22,77,66,55,67,61,55,98,92,64,30.12,29.98,29.87,,,,10,2,18,0.04,,,104
2012-9-23,70,59,47,63,56,46,97,84,44,30.01,29.87,29.82,,,,8,3,,0.00,,,230
2012-9-24,64,49,34,46,41,34,98,75,32,30.11,30.05,30.01,,,,8,2,,0.00,,,270
2012-9-25,66,49,32,47,41,31,99,74,33,30.14,30.08,30.04,,,,15,3,23,0.00,,,198
2012-9-26,63,52,42,60,53,41,98,92,78,30.14,30.07,29.98,,,,9,3,,0.04,,,174
2012-9-27,62,52,41,60,47,39,97,73,32,30.22,30.06,29.92,,,,10,4,17,0.00,,,301
2012-9-28,62,47,32,46,39,31,100,77,32,30.30,30.24,30.18,,,,6,2,,0.08,,,181
2012-9-29,55,51,47,54,50,46,97,95,91,30.18,30.03,29.90,,,,10,4,17,1.38,,,58
2012-9-30,65,60,54,64,60,54,98,97,95,29.94,29.80,29.57,,,,8,3,,1.61,,,89